createdAt,value
2023-01-18T00:00:20.943Z,44.80
2023-01-18T00:05:24.055Z,40.65
2023-01-18T00:10:26.903Z,45.78
2023-01-18T00:15:30.859Z,44.15
2023-01-18T00:20:33.402Z,42.83
2023-01-18T00:25:35.999Z,43.05
2023-01-18T00:30:39.932Z,42.97
2023-01-18T00:35:42.516Z,46.33
2023-01-18T00:40:45.161Z,45.42
2023-01-18T00:45:47.728Z,53.33
2023-01-18T00:50:50.245Z,45.58
2023-01-18T00:55:52.798Z,47.38
2023-01-18T01:00:55.523Z,52.17
2023-01-18T01:06:17.073Z,46.58
2023-01-18T01:11:19.727Z,49.30
2023-01-18T01:16:41.468Z,51.35
2023-01-18T01:22:02.852Z,50.95
2023-01-18T01:27:05.430Z,48.50
2023-01-18T01:32:08.487Z,50.35
2023-01-18T01:37:11.086Z,54.45
2023-01-18T01:42:13.612Z,42.33
2023-01-18T01:47:39.818Z,43.50
2023-01-18T01:52:45.899Z,45.58
2023-01-18T01:58:11.601Z,44.20
2023-01-18T02:03:20.293Z,38.45
2023-01-18T02:08:23.438Z,41.05
2023-01-18T02:13:26.750Z,40.72
2023-01-18T02:18:40.504Z,42.97
2023-01-18T02:24:07.349Z,38.22
2023-01-18T02:29:18.939Z,38.08
2023-01-18T02:34:41.689Z,38.22
2023-01-18T02:40:13.894Z,37.33
2023-01-18T02:45:44.223Z,42.88
2023-01-18T02:50:48.909Z,42.85
2023-01-18T02:56:18.975Z,37.33
2023-01-18T03:01:37.040Z,43.80
2023-01-18T03:06:42.897Z,40.20
2023-01-18T03:11:50.944Z,42.60
2023-01-18T03:17:17.945Z,44.35
2023-01-18T03:22:40.581Z,48.22
2023-01-18T03:28:04.314Z,47.13
2023-01-18T03:33:27.203Z,41.17
2023-01-18T03:38:31.968Z,50.70
2023-01-18T03:43:37.943Z,43.50
2023-01-18T03:48:40.724Z,39.97
2023-01-18T03:53:56.129Z,42.08
2023-01-18T03:59:03.400Z,41.58
2023-01-18T04:04:05.966Z,39.53
2023-01-18T04:09:08.643Z,42.10
2023-01-18T04:14:11.178Z,43.03
2023-01-18T04:19:13.801Z,37.78
2023-01-18T04:24:17.381Z,38.38
2023-01-18T04:29:19.962Z,42.50
2023-01-18T04:34:23.115Z,37.92
2023-01-18T04:39:25.757Z,45.90
2023-01-18T04:44:28.354Z,43.13
2023-01-18T04:49:33.210Z,37.80
2023-01-18T04:54:35.780Z,36.75
2023-01-18T04:59:39.411Z,34.42
2023-01-18T05:04:42.152Z,36.38
2023-01-18T05:09:44.740Z,36.42
2023-01-18T05:14:47.317Z,35.88
2023-01-18T05:19:49.910Z,35.30
2023-01-18T05:24:52.527Z,34.72
2023-01-18T05:29:55.068Z,38.25
2023-01-18T05:34:57.610Z,36.95
2023-01-18T05:40:00.306Z,38.28
2023-01-18T05:45:02.970Z,35.75
2023-01-18T05:50:07.290Z,40.15
2023-01-18T05:55:09.863Z,35.08
2023-01-18T06:00:12.729Z,33.28
2023-01-18T06:05:16.072Z,36.85
2023-01-18T06:10:19.068Z,37.97
2023-01-18T06:15:21.666Z,37.20
2023-01-18T06:20:25.036Z,33.20
2023-01-18T06:25:27.752Z,38.17
2023-01-18T06:30:30.382Z,37.33
2023-01-18T06:35:37.138Z,34.28
2023-01-18T06:40:39.872Z,33.45
2023-01-18T06:45:42.583Z,33.42
2023-01-18T06:50:45.190Z,38.83
2023-01-18T06:55:59.069Z,37.92
2023-01-18T07:01:01.852Z,33.50
2023-01-18T07:06:05.907Z,34.92
2023-01-18T07:11:10.467Z,33.25
2023-01-18T07:16:17.630Z,37.83
2023-01-18T07:21:22.935Z,36.20
2023-01-18T07:26:26.245Z,38.28
2023-01-18T07:31:30.348Z,34.92
2023-01-18T07:36:32.983Z,35.40
2023-01-18T07:41:35.529Z,34.33
2023-01-18T07:46:38.690Z,35.75
2023-01-18T07:51:42.647Z,36.42
2023-01-18T07:56:45.336Z,35.83
2023-01-18T08:01:47.891Z,33.47
2023-01-18T08:06:51.435Z,35.92
2023-01-18T08:11:54.093Z,36.80
2023-01-18T08:16:56.738Z,34.92
2023-01-18T08:21:59.289Z,32.80
2023-01-18T08:27:01.961Z,30.30
2023-01-18T08:32:04.665Z,33.47
2023-01-18T08:37:07.322Z,38.30
2023-01-18T08:42:12.852Z,37.42
2023-01-18T08:47:16.158Z,37.22
2023-01-18T08:52:18.724Z,33.72
2023-01-18T08:57:21.801Z,38.13
2023-01-18T09:02:27.415Z,42.97
2023-01-18T09:07:30.039Z,33.92
2023-01-18T09:12:34.928Z,39.20
2023-01-18T09:17:37.529Z,36.75
2023-01-18T09:22:40.201Z,36.90
2023-01-18T09:27:43.196Z,36.80
2023-01-18T09:32:45.814Z,36.90
2023-01-18T09:37:48.506Z,37.35
2023-01-18T09:42:52.766Z,36.45
2023-01-18T09:48:05.884Z,38.53
2023-01-18T09:53:26.972Z,34.00
2023-01-18T09:59:15.226Z,37.13
2023-01-18T10:04:20.676Z,34.08
2023-01-18T10:09:30.086Z,33.70
2023-01-18T10:15:31.961Z,32.80
2023-01-18T10:20:57.326Z,30.17
2023-01-18T10:26:04.095Z,33.17
2023-01-18T10:31:44.403Z,39.70
2023-01-18T10:36:55.365Z,38.60
2023-01-18T10:42:02.744Z,36.15
2023-01-18T10:47:06.160Z,34.92
2023-01-18T10:52:28.718Z,33.00
2023-01-18T10:57:37.448Z,33.35
2023-01-18T11:02:40.641Z,34.88
2023-01-18T11:07:43.302Z,33.50
2023-01-18T11:12:48.082Z,35.33
2023-01-18T11:17:50.744Z,34.35
2023-01-18T11:23:01.813Z,32.88
2023-01-18T11:28:07.575Z,36.42
2023-01-18T11:33:18.685Z,34.42
2023-01-18T11:38:26.780Z,36.53
2023-01-18T11:43:32.770Z,36.28
2023-01-18T11:48:42.249Z,43.10
2023-01-18T11:53:54.407Z,34.58
2023-01-18T11:58:57.330Z,34.10
2023-01-18T12:04:23.326Z,44.75
2023-01-18T12:09:43.416Z,37.75
2023-01-18T12:15:43.179Z,45.00
2023-01-18T12:21:27.579Z,39.33
2023-01-18T12:26:35.807Z,33.38
2023-01-18T12:31:40.960Z,37.75
2023-01-18T12:36:49.387Z,45.17
2023-01-18T12:42:05.817Z,35.95
2023-01-18T12:47:39.614Z,35.13
2023-01-18T12:53:02.966Z,38.80
2023-01-18T12:58:06.643Z,39.10
2023-01-18T13:03:16.566Z,32.95
2023-01-18T13:08:59.715Z,45.47
2023-01-18T13:14:33.587Z,39.97
2023-01-18T13:19:54.679Z,28.73
2023-01-18T13:25:19.492Z,26.10
2023-01-18T13:30:22.182Z,28.92
2023-01-18T13:35:33.317Z,35.17
2023-01-18T13:40:43.107Z,30.13
2023-01-18T13:46:08.329Z,27.05
2023-01-18T13:51:37.119Z,27.08
2023-01-18T13:56:40.624Z,33.63
2023-01-18T14:01:45.655Z,27.83
2023-01-18T14:06:49.589Z,31.45
2023-01-18T14:11:55.487Z,30.60
2023-01-18T14:17:12.942Z,31.75
2023-01-18T14:22:21.267Z,33.17
2023-01-18T14:27:28.517Z,26.58
2023-01-18T14:32:37.827Z,28.77
2023-01-18T14:37:40.354Z,26.52
2023-01-18T14:42:51.069Z,29.63
2023-01-18T14:47:59.445Z,28.50
2023-01-18T14:53:02.245Z,29.90
2023-01-18T14:58:14.774Z,28.95
2023-01-18T15:03:26.434Z,27.50
2023-01-18T15:08:31.450Z,27.35
2023-01-18T15:13:47.467Z,29.90
2023-01-18T15:18:52.197Z,26.98
2023-01-18T15:24:02.708Z,29.58
2023-01-18T15:29:13.651Z,27.83
2023-01-18T15:34:18.830Z,28.23
2023-01-18T15:39:21.591Z,23.80
2023-01-18T15:44:40.735Z,25.85
2023-01-18T15:49:51.999Z,25.90
2023-01-18T15:54:55.450Z,24.05
2023-01-18T16:00:01.900Z,22.35
2023-01-18T16:05:20.433Z,21.60
2023-01-18T16:10:33.114Z,21.33
2023-01-18T16:15:35.801Z,19.85
2023-01-18T16:20:38.854Z,22.48
2023-01-18T16:25:41.807Z,24.52
2023-01-18T16:30:50.286Z,27.05
2023-01-18T16:35:53.127Z,21.80
2023-01-18T16:40:55.695Z,22.73
2023-01-18T16:45:59.121Z,24.98
2023-01-18T16:51:01.970Z,23.60
2023-01-18T16:56:04.656Z,30.38
2023-01-18T17:01:12.799Z,26.52
2023-01-18T17:06:22.855Z,35.10
2023-01-18T17:11:25.615Z,28.77
2023-01-18T17:16:28.273Z,33.15
2023-01-18T17:21:30.971Z,29.23
2023-01-18T17:26:33.608Z,28.83
2023-01-18T17:31:41.661Z,32.85
2023-01-18T17:36:47.399Z,30.67
2023-01-18T17:41:50.130Z,35.67
2023-01-18T17:46:52.876Z,30.90
2023-01-18T17:51:55.558Z,31.05
2023-01-18T17:56:58.151Z,30.20
2023-01-18T18:02:00.776Z,31.38
2023-01-18T18:07:03.786Z,30.83
2023-01-18T18:12:10.473Z,37.40
2023-01-18T18:17:13.135Z,32.95
2023-01-18T18:22:15.975Z,37.08
2023-01-18T18:27:19.081Z,33.45
2023-01-18T18:32:24.499Z,37.58
2023-01-18T18:37:27.084Z,34.60
2023-01-18T18:42:29.683Z,34.92
2023-01-18T18:47:32.581Z,37.60
2023-01-18T18:52:35.412Z,39.45
2023-01-18T18:57:37.984Z,34.63
2023-01-18T19:02:40.552Z,33.80
2023-01-18T19:07:43.580Z,37.55
2023-01-18T19:12:46.117Z,45.25
2023-01-18T19:17:50.585Z,38.97
2023-01-18T19:22:53.343Z,41.38
2023-01-18T19:27:55.910Z,39.13
2023-01-18T19:33:00.031Z,40.83
2023-01-18T19:38:03.036Z,43.38
2023-01-18T19:43:05.755Z,39.35
2023-01-18T19:48:08.437Z,35.67
2023-01-18T19:53:11.139Z,43.47
2023-01-18T19:58:13.713Z,42.42
2023-01-18T20:03:16.308Z,39.88
2023-01-18T20:08:19.035Z,41.63
2023-01-18T20:13:21.588Z,52.55
2023-01-18T20:18:24.180Z,44.72
2023-01-18T20:23:26.718Z,42.92
2023-01-18T20:28:29.474Z,44.00
2023-01-18T20:33:33.644Z,45.55
2023-01-18T20:38:36.244Z,44.40
2023-01-18T20:43:39.020Z,47.63
2023-01-18T20:48:41.615Z,45.47
2023-01-18T20:53:44.234Z,46.95
2023-01-18T20:58:46.762Z,45.97
2023-01-18T21:03:54.573Z,46.53
2023-01-18T21:08:58.599Z,46.00
2023-01-18T21:14:01.380Z,45.60
2023-01-18T21:19:04.581Z,45.33
2023-01-18T21:24:07.426Z,42.47
2023-01-18T21:29:10.011Z,44.65
2023-01-18T21:34:12.715Z,42.67
2023-01-18T21:39:18.519Z,41.70
2023-01-18T21:44:39.521Z,37.35
2023-01-18T21:50:17.851Z,43.47
2023-01-18T21:55:21.854Z,43.83
2023-01-18T22:00:24.448Z,47.92
2023-01-18T22:05:27.077Z,44.55
2023-01-18T22:10:29.858Z,47.90
2023-01-18T22:15:32.546Z,41.08
2023-01-18T22:20:35.394Z,41.72
2023-01-18T22:25:38.053Z,47.50
2023-01-18T22:30:40.604Z,45.50
2023-01-18T22:35:43.564Z,41.40
2023-01-18T22:40:46.158Z,49.63
2023-01-18T22:45:55.442Z,41.45
2023-01-18T22:51:02.686Z,38.42
2023-01-18T22:56:08.665Z,41.35
2023-01-18T23:01:26.762Z,36.72
2023-01-18T23:06:42.287Z,38.75
2023-01-18T23:11:45.778Z,34.30
2023-01-18T23:17:07.121Z,33.88
2023-01-18T23:22:10.660Z,31.17
2023-01-18T23:27:13.179Z,34.58
2023-01-18T23:32:15.756Z,35.47
2023-01-18T23:37:18.332Z,36.08
2023-01-18T23:42:40.051Z,39.08
2023-01-18T23:48:01.843Z,32.47
2023-01-18T23:58:26.087Z,35.13
